createdAt,value
2024-02-18T00:00:43.433Z,96472.00
2024-02-18T00:01:43.355Z,96474.00
2024-02-18T00:02:43.366Z,96472.00
2024-02-18T00:03:43.456Z,96474.00
2024-02-18T00:04:43.524Z,96473.00
2024-02-18T00:05:43.446Z,96477.00
2024-02-18T00:06:43.461Z,96479.00
2024-02-18T00:07:43.342Z,96477.00
2024-02-18T00:08:43.346Z,96476.00
2024-02-18T00:09:43.428Z,96476.00
2024-02-18T00:10:43.372Z,96477.00
2024-02-18T00:11:43.350Z,96476.00
2024-02-18T00:12:43.366Z,96473.00
2024-02-18T00:13:43.417Z,96471.00
2024-02-18T00:14:43.405Z,96471.00
2024-02-18T00:15:43.433Z,96469.00
2024-02-18T00:16:43.352Z,96469.00
2024-02-18T00:17:43.406Z,96468.00
2024-02-18T00:18:43.576Z,96467.00
2024-02-18T00:19:43.832Z,96468.00
2024-02-18T00:20:43.374Z,96468.00
2024-02-18T00:21:43.453Z,96471.00
2024-02-18T00:22:43.386Z,96472.00
2024-02-18T00:23:43.417Z,96474.00
2024-02-18T00:24:43.467Z,96476.00
2024-02-18T00:25:43.363Z,96474.00
2024-02-18T00:26:54.225Z,96473.00
2024-02-18T00:27:44.390Z,96474.00
2024-02-18T00:28:43.399Z,96472.00
2024-02-18T00:29:43.402Z,96473.00
2024-02-18T00:30:43.419Z,96471.00
2024-02-18T00:31:43.396Z,96469.00
2024-02-18T00:32:43.444Z,96468.00
2024-02-18T00:33:43.590Z,96466.00
2024-02-18T00:34:43.581Z,96464.00
2024-02-18T00:35:43.427Z,96465.00
2024-02-18T00:36:43.423Z,96464.00
2024-02-18T00:37:43.408Z,96466.00
2024-02-18T00:38:43.477Z,96468.00
2024-02-18T00:39:43.765Z,96467.00
2024-02-18T00:40:43.567Z,96465.00
2024-02-18T00:41:43.684Z,96464.00
2024-02-18T00:42:43.745Z,96467.00
2024-02-18T00:43:43.700Z,96466.00
2024-02-18T00:44:43.825Z,96463.00
2024-02-18T00:45:44.001Z,96465.00
2024-02-18T00:46:50.869Z,96465.00
2024-02-18T00:47:44.957Z,96465.00
2024-02-18T00:48:44.037Z,96465.00
2024-02-18T00:49:44.266Z,96464.00
2024-02-18T00:50:43.968Z,96464.00
2024-02-18T00:51:43.949Z,96465.00
2024-02-18T00:52:43.925Z,96464.00
2024-02-18T00:53:43.929Z,96464.00
2024-02-18T00:54:43.957Z,96465.00
2024-02-18T00:55:43.933Z,96463.00
2024-02-18T00:56:43.932Z,96466.00
2024-02-18T00:57:44.080Z,96463.00
2024-02-18T00:58:43.992Z,96463.00
2024-02-18T00:59:44.070Z,96461.00
2024-02-18T01:00:44.140Z,96462.00
2024-02-18T01:01:44.325Z,96459.00
2024-02-18T01:02:44.225Z,96457.00
2024-02-18T01:03:44.306Z,96458.00
2024-02-18T01:04:44.313Z,96458.00
2024-02-18T01:05:44.410Z,96460.00
2024-02-18T01:06:44.474Z,96457.00
2024-02-18T01:07:44.590Z,96459.00
2024-02-18T01:08:44.536Z,96459.00
2024-02-18T01:09:44.818Z,96457.00
2024-02-18T01:10:44.668Z,96458.00
2024-02-18T01:11:44.770Z,96458.00
2024-02-18T01:12:44.815Z,96459.00
2024-02-18T01:13:44.848Z,96459.00
2024-02-18T01:14:44.887Z,96458.00
2024-02-18T01:15:44.961Z,96458.00
2024-02-18T01:16:45.018Z,96460.00
2024-02-18T01:17:45.114Z,96459.00
2024-02-18T01:18:45.448Z,96459.00
2024-02-18T01:19:45.264Z,96462.00
2024-02-18T01:20:45.247Z,96462.00
2024-02-18T01:21:45.322Z,96462.00
2024-02-18T01:22:45.356Z,96463.00
2024-02-18T01:23:45.444Z,96461.00
2024-02-18T01:24:45.478Z,96462.00
2024-02-18T01:25:45.533Z,96459.00
2024-02-18T01:26:45.559Z,96459.00
2024-02-18T01:27:45.658Z,96457.00
2024-02-18T01:28:45.712Z,96455.00
2024-02-18T01:29:45.766Z,96457.00
2024-02-18T01:30:45.917Z,96454.00
2024-02-18T01:31:45.870Z,96453.00
2024-02-18T01:32:45.924Z,96451.00
2024-02-18T01:33:46.012Z,96451.00
2024-02-18T01:34:46.079Z,96450.00
2024-02-18T01:35:46.080Z,96452.00
2024-02-18T01:36:46.216Z,96452.00
2024-02-18T01:37:46.183Z,96454.00
2024-02-18T01:38:46.250Z,96455.00
2024-02-18T01:39:46.322Z,96456.00
2024-02-18T01:40:46.364Z,96456.00
2024-02-18T01:41:46.407Z,96454.00
2024-02-18T01:42:46.515Z,96454.00
2024-02-18T01:43:46.541Z,96455.00
2024-02-18T01:44:46.591Z,96456.00
2024-02-18T01:45:46.690Z,96455.00
2024-02-18T01:46:46.726Z,96455.00
2024-02-18T01:47:46.821Z,96459.00
2024-02-18T01:48:47.049Z,96456.00
2024-02-18T01:49:47.276Z,96458.00
2024-02-18T01:50:47.088Z,96455.00
2024-02-18T01:51:47.042Z,96454.00
2024-02-18T01:52:47.035Z,96453.00
2024-02-18T01:53:47.060Z,96452.00
2024-02-18T01:54:47.173Z,96452.00
2024-02-18T01:55:47.190Z,96452.00
2024-02-18T01:56:47.263Z,96456.00
2024-02-18T01:57:47.377Z,96454.00
2024-02-18T01:58:47.358Z,96456.00
2024-02-18T01:59:47.449Z,96455.00
2024-02-18T02:00:47.580Z,96452.00
2024-02-18T02:01:47.582Z,96453.00
2024-02-18T02:02:47.588Z,96452.00
2024-02-18T02:03:47.713Z,96451.00
2024-02-18T02:04:47.738Z,96455.00
2024-02-18T02:05:47.793Z,96455.00
2024-02-18T02:06:47.852Z,96457.00
2024-02-18T02:07:47.845Z,96457.00
2024-02-18T02:08:47.898Z,96457.00
2024-02-18T02:09:47.986Z,96457.00
2024-02-18T02:10:48.074Z,96454.00
2024-02-18T02:11:48.061Z,96454.00
2024-02-18T02:12:48.143Z,96454.00
2024-02-18T02:13:48.162Z,96455.00
2024-02-18T02:14:48.248Z,96455.00
2024-02-18T02:15:48.411Z,96456.00
2024-02-18T02:16:48.342Z,96457.00
2024-02-18T02:17:48.435Z,96457.00
2024-02-18T02:18:48.558Z,96457.00
2024-02-18T02:19:48.823Z,96456.00
2024-02-18T02:20:48.588Z,96456.00
2024-02-18T02:21:48.711Z,96457.00
2024-02-18T02:22:48.746Z,96457.00
2024-02-18T02:23:48.769Z,96456.00
2024-02-18T02:24:48.864Z,96455.00
2024-02-18T02:25:48.868Z,96454.00
2024-02-18T02:26:48.939Z,96454.00
2024-02-18T02:27:49.004Z,96453.00
2024-02-18T02:28:49.070Z,96452.00
2024-02-18T02:29:49.120Z,96452.00
2024-02-18T02:30:49.821Z,96450.00
2024-02-18T02:31:49.223Z,96451.00
2024-02-18T02:32:49.376Z,96450.00
2024-02-18T02:33:49.374Z,96450.00
2024-02-18T02:34:49.442Z,96449.00
2024-02-18T02:35:49.436Z,96448.00
2024-02-18T02:36:49.565Z,96449.00
2024-02-18T02:37:49.570Z,96448.00
2024-02-18T02:38:49.663Z,96449.00
2024-02-18T02:39:49.698Z,96447.00
2024-02-18T02:40:49.745Z,96449.00
2024-02-18T02:41:49.798Z,96447.00
2024-02-18T02:42:49.873Z,96446.00
2024-02-18T02:43:49.909Z,96446.00
2024-02-18T02:44:49.985Z,96443.00
2024-02-18T02:45:50.073Z,96445.00
2024-02-18T02:46:50.111Z,96443.00
2024-02-18T02:47:50.219Z,96443.00
2024-02-18T02:48:50.263Z,96445.00
2024-02-18T02:49:50.335Z,96448.00
2024-02-18T02:50:50.318Z,96447.00
2024-02-18T02:51:50.421Z,96447.00
2024-02-18T02:52:50.409Z,96448.00
2024-02-18T02:53:50.490Z,96446.00
2024-02-18T02:54:50.602Z,96444.00
2024-02-18T02:55:50.607Z,96444.00
2024-02-18T02:56:50.652Z,96441.00
2024-02-18T02:57:50.729Z,96441.00
2024-02-18T02:58:50.784Z,96440.00
2024-02-18T02:59:50.871Z,96438.00
2024-02-18T03:00:51.023Z,96435.00
2024-02-18T03:01:51.017Z,96432.00
2024-02-18T03:02:51.007Z,96432.00
2024-02-18T03:03:51.126Z,96433.00
2024-02-18T03:04:52.343Z,96431.00
2024-02-18T03:05:51.174Z,96429.00
2024-02-18T03:06:52.753Z,96430.00
2024-02-18T03:07:52.754Z,96430.00
2024-02-18T03:08:51.866Z,96429.00
2024-02-18T03:09:51.235Z,96429.00
2024-02-18T03:10:52.180Z,96429.00
2024-02-18T03:11:51.263Z,96428.00
2024-02-18T03:12:51.260Z,96428.00
2024-02-18T03:13:51.173Z,96426.00
2024-02-18T03:14:51.177Z,96423.00
2024-02-18T03:15:51.255Z,96422.00
2024-02-18T03:16:51.793Z,96420.00
2024-02-18T03:17:51.263Z,96423.00
2024-02-18T03:18:51.371Z,96422.00
2024-02-18T03:19:52.380Z,96424.00
2024-02-18T03:20:53.212Z,96425.00
2024-02-18T03:21:51.485Z,96429.00
2024-02-18T03:22:51.419Z,96428.00
2024-02-18T03:23:51.377Z,96430.00
2024-02-18T03:24:53.129Z,96429.00
2024-02-18T03:25:52.375Z,96429.00
2024-02-18T03:26:51.403Z,96431.00
2024-02-18T03:27:51.454Z,96431.00
2024-02-18T03:28:51.420Z,96430.00
2024-02-18T03:29:51.428Z,96428.00
2024-02-18T03:30:51.473Z,96429.00
2024-02-18T03:31:51.402Z,96428.00
2024-02-18T03:32:51.476Z,96428.00
2024-02-18T03:33:52.392Z,96425.00
2024-02-18T03:34:52.483Z,96424.00
2024-02-18T03:35:51.602Z,96425.00
2024-02-18T03:36:51.635Z,96425.00
2024-02-18T03:37:51.688Z,96425.00
2024-02-18T03:38:51.822Z,96424.00
2024-02-18T03:39:51.881Z,96424.00
2024-02-18T03:40:51.904Z,96425.00
2024-02-18T03:41:51.947Z,96427.00
2024-02-18T03:42:51.988Z,96427.00
2024-02-18T03:43:52.720Z,96430.00
2024-02-18T03:44:52.116Z,96429.00
2024-02-18T03:45:52.205Z,96432.00
2024-02-18T03:46:52.238Z,96428.00
2024-02-18T03:47:52.464Z,96426.00
2024-02-18T03:48:52.861Z,96427.00
2024-02-18T03:49:52.608Z,96425.00
2024-02-18T03:50:52.472Z,96424.00
2024-02-18T03:51:52.602Z,96423.00
2024-02-18T03:52:52.579Z,96424.00
2024-02-18T03:53:52.624Z,96424.00
2024-02-18T03:54:52.742Z,96423.00
2024-02-18T03:55:52.735Z,96423.00
2024-02-18T03:56:52.799Z,96422.00
2024-02-18T03:57:52.947Z,96424.00
2024-02-18T03:58:52.937Z,96425.00
2024-02-18T03:59:53.009Z,96424.00
2024-02-18T04:00:53.079Z,96427.00
2024-02-18T04:01:53.153Z,96426.00
2024-02-18T04:02:53.164Z,96425.00
2024-02-18T04:03:53.446Z,96427.00
2024-02-18T04:04:53.355Z,96426.00
2024-02-18T04:05:54.272Z,96426.00
2024-02-18T04:06:54.302Z,96427.00
2024-02-18T04:07:53.469Z,96428.00
2024-02-18T04:08:53.473Z,96429.00
2024-02-18T04:09:53.643Z,96427.00
2024-02-18T04:10:53.631Z,96430.00
2024-02-18T04:11:53.793Z,96427.00
2024-02-18T04:12:53.860Z,96429.00
2024-02-18T04:13:53.812Z,96424.00
2024-02-18T04:14:54.764Z,96423.00
2024-02-18T04:15:54.804Z,96421.00
2024-02-18T04:16:53.993Z,96420.00
2024-02-18T04:17:54.119Z,96421.00
2024-02-18T04:18:54.202Z,96418.00
2024-02-18T04:19:54.264Z,96418.00
2024-02-18T04:20:54.006Z,96418.00
2024-02-18T04:21:54.093Z,96418.00
2024-02-18T04:22:54.759Z,96417.00
2024-02-18T04:23:54.046Z,96417.00
2024-02-18T04:24:54.046Z,96417.00
2024-02-18T04:25:54.025Z,96417.00
2024-02-18T04:26:54.016Z,96418.00
2024-02-18T04:27:54.109Z,96419.00
2024-02-18T04:28:54.101Z,96416.00
2024-02-18T04:29:54.772Z,96413.00
2024-02-18T04:31:02.111Z,96414.00
2024-02-18T04:32:01.986Z,96413.00
2024-02-18T04:33:02.127Z,96412.00
2024-02-18T04:34:02.077Z,96412.00
2024-02-18T04:35:02.210Z,96409.00
2024-02-18T04:36:01.955Z,96408.00
2024-02-18T04:37:02.114Z,96406.00
2024-02-18T04:38:02.010Z,96403.00
2024-02-18T04:39:02.085Z,96401.00
2024-02-18T04:40:02.212Z,96399.00
2024-02-18T04:41:02.235Z,96400.00
2024-02-18T04:42:02.266Z,96398.00
2024-02-18T04:43:02.428Z,96399.00
2024-02-18T04:44:02.412Z,96400.00
2024-02-18T04:45:02.465Z,96396.00
2024-02-18T04:46:02.582Z,96399.00
2024-02-18T04:47:02.591Z,96398.00
2024-02-18T04:48:02.757Z,96399.00
2024-02-18T04:49:03.678Z,96399.00
2024-02-18T04:50:02.746Z,96399.00
2024-02-18T04:51:02.789Z,96398.00
2024-02-18T04:52:02.936Z,96398.00
2024-02-18T04:53:02.938Z,96396.00
2024-02-18T04:54:02.961Z,96397.00
2024-02-18T04:55:03.115Z,96398.00
2024-02-18T04:56:03.106Z,96400.00
2024-02-18T04:57:03.159Z,96404.00
2024-02-18T04:58:03.312Z,96405.00
2024-02-18T04:59:03.293Z,96406.00
2024-02-18T05:00:03.593Z,96405.00
2024-02-18T05:01:03.544Z,96404.00
2024-02-18T05:02:03.478Z,96406.00
2024-02-18T05:03:03.593Z,96406.00
2024-02-18T05:04:03.654Z,96406.00
2024-02-18T05:05:03.722Z,96406.00
2024-02-18T05:06:03.739Z,96406.00
2024-02-18T05:07:04.049Z,96406.00
2024-02-18T05:08:03.833Z,96405.00
2024-02-18T05:09:03.897Z,96411.00
2024-02-18T05:10:03.997Z,96407.00
2024-02-18T05:11:04.022Z,96409.00
2024-02-18T05:12:04.088Z,96411.00
2024-02-18T05:13:04.213Z,96410.00
2024-02-18T05:14:04.171Z,96409.00
2024-02-18T05:15:04.598Z,96411.00
2024-02-18T05:16:05.323Z,96411.00
2024-02-18T05:17:04.359Z,96410.00
2024-02-18T05:18:04.456Z,96412.00
2024-02-18T05:19:04.521Z,96410.00
2024-02-18T05:20:04.521Z,96410.00
2024-02-18T05:21:04.589Z,96412.00
2024-02-18T05:22:04.697Z,96413.00
2024-02-18T05:23:04.739Z,96412.00
2024-02-18T05:24:04.785Z,96414.00
2024-02-18T05:25:04.892Z,96415.00
2024-02-18T05:26:04.868Z,96413.00
2024-02-18T05:27:04.929Z,96410.00
2024-02-18T05:28:05.073Z,96412.00
2024-02-18T05:29:05.052Z,96412.00
2024-02-18T05:30:05.132Z,96409.00
2024-02-18T05:31:05.251Z,96406.00
2024-02-18T05:32:05.206Z,96404.00
2024-02-18T05:33:05.348Z,96407.00
2024-02-18T05:34:05.497Z,96407.00
2024-02-18T05:35:07.550Z,96407.00
2024-02-18T05:36:05.443Z,96405.00
2024-02-18T05:37:05.455Z,96408.00
2024-02-18T05:38:05.437Z,96408.00
2024-02-18T05:39:05.385Z,96410.00
2024-02-18T05:40:05.457Z,96410.00
2024-02-18T05:41:05.420Z,96409.00
2024-02-18T05:42:05.392Z,96409.00
2024-02-18T05:43:05.467Z,96410.00
2024-02-18T05:44:05.417Z,96409.00
2024-02-18T05:45:05.514Z,96408.00
2024-02-18T05:46:05.511Z,96406.00
2024-02-18T05:47:05.433Z,96404.00
2024-02-18T05:48:05.549Z,96405.00
2024-02-18T05:49:05.480Z,96404.00
2024-02-18T05:50:05.626Z,96405.00
2024-02-18T05:51:06.438Z,96406.00
2024-02-18T05:52:05.559Z,96403.00
2024-02-18T05:53:05.443Z,96407.00
2024-02-18T05:54:05.483Z,96409.00
2024-02-18T05:55:05.786Z,96410.00
2024-02-18T05:56:05.466Z,96410.00
2024-02-18T05:57:05.437Z,96412.00
2024-02-18T05:58:05.587Z,96411.00
2024-02-18T05:59:05.448Z,96416.00
2024-02-18T06:00:05.477Z,96415.00
2024-02-18T06:01:05.851Z,96418.00
2024-02-18T06:02:07.118Z,96417.00
2024-02-18T06:03:06.078Z,96421.00
2024-02-18T06:04:05.593Z,96422.00
2024-02-18T06:05:06.540Z,96424.00
2024-02-18T06:06:05.544Z,96426.00
2024-02-18T06:07:05.531Z,96428.00
2024-02-18T06:08:05.519Z,96432.00
2024-02-18T06:09:05.496Z,96433.00
2024-02-18T06:10:05.656Z,96435.00
2024-02-18T06:11:05.645Z,96433.00
2024-02-18T06:12:05.586Z,96436.00
2024-02-18T06:13:05.596Z,96437.00
2024-02-18T06:14:05.521Z,96439.00
2024-02-18T06:15:05.521Z,96439.00
2024-02-18T06:16:05.652Z,96443.00
2024-02-18T06:17:05.639Z,96443.00
2024-02-18T06:18:06.705Z,96441.00
2024-02-18T06:19:07.608Z,96441.00
2024-02-18T06:20:06.886Z,96442.00
2024-02-18T06:21:05.686Z,96443.00
2024-02-18T06:22:05.853Z,96443.00
2024-02-18T06:23:05.707Z,96444.00
2024-02-18T06:24:05.733Z,96446.00
2024-02-18T06:25:05.749Z,96448.00
2024-02-18T06:26:05.730Z,96447.00
2024-02-18T06:27:05.728Z,96450.00
2024-02-18T06:28:05.759Z,96451.00
2024-02-18T06:29:05.726Z,96451.00
2024-02-18T06:30:05.737Z,96451.00
2024-02-18T06:31:05.928Z,96451.00
2024-02-18T06:32:05.717Z,96451.00
2024-02-18T06:33:05.759Z,96450.00
2024-02-18T06:34:05.967Z,96447.00
2024-02-18T06:35:05.780Z,96449.00
2024-02-18T06:36:05.727Z,96449.00
2024-02-18T06:37:05.812Z,96446.00
2024-02-18T06:38:05.743Z,96447.00
2024-02-18T06:39:05.756Z,96446.00
2024-02-18T06:40:05.943Z,96445.00
2024-02-18T06:41:05.774Z,96446.00
2024-02-18T06:42:05.842Z,96445.00
2024-02-18T06:43:05.996Z,96445.00
2024-02-18T06:44:05.784Z,96442.00
2024-02-18T06:45:05.852Z,96443.00
2024-02-18T06:46:06.725Z,96443.00
2024-02-18T06:47:05.965Z,96443.00
2024-02-18T06:48:06.112Z,96443.00
2024-02-18T06:49:06.144Z,96442.00
2024-02-18T06:50:06.219Z,96443.00
2024-02-18T06:51:06.203Z,96443.00
2024-02-18T06:52:06.328Z,96445.00
2024-02-18T06:53:06.325Z,96444.00
2024-02-18T06:54:06.374Z,96443.00
2024-02-18T06:55:06.562Z,96445.00
2024-02-18T06:56:06.500Z,96446.00
2024-02-18T06:57:06.545Z,96444.00
2024-02-18T06:58:06.665Z,96446.00
2024-02-18T06:59:06.684Z,96444.00
2024-02-18T07:00:06.744Z,96447.00
2024-02-18T07:01:06.894Z,96447.00
2024-02-18T07:02:06.873Z,96447.00
2024-02-18T07:03:06.869Z,96447.00
2024-02-18T07:04:07.032Z,96445.00
2024-02-18T07:05:07.076Z,96443.00
2024-02-18T07:06:07.650Z,96446.00
2024-02-18T07:07:07.179Z,96446.00
2024-02-18T07:08:07.143Z,96446.00
2024-02-18T07:09:07.167Z,96443.00
2024-02-18T07:10:07.472Z,96448.00
2024-02-18T07:11:07.309Z,96447.00
2024-02-18T07:12:07.368Z,96448.00
2024-02-18T07:13:07.453Z,96451.00
2024-02-18T07:14:07.505Z,96450.00
2024-02-18T07:15:07.571Z,96451.00
2024-02-18T07:16:07.638Z,96449.00
2024-02-18T07:17:07.627Z,96450.00
2024-02-18T07:18:07.845Z,96451.00
2024-02-18T07:19:07.795Z,96451.00
2024-02-18T07:20:07.874Z,96452.00
2024-02-18T07:21:07.846Z,96452.00
2024-02-18T07:22:08.074Z,96451.00
2024-02-18T07:23:07.978Z,96451.00
2024-02-18T07:24:08.095Z,96450.00
2024-02-18T07:25:08.178Z,96450.00
2024-02-18T07:26:08.143Z,96453.00
2024-02-18T07:27:08.198Z,96453.00
2024-02-18T07:28:08.332Z,96455.00
2024-02-18T07:29:08.282Z,96454.00
2024-02-18T07:30:08.368Z,96453.00
2024-02-18T07:31:08.547Z,96452.00
2024-02-18T07:32:08.441Z,96450.00
2024-02-18T07:33:08.594Z,96448.00
2024-02-18T07:34:08.630Z,96448.00
2024-02-18T07:35:08.673Z,96446.00
2024-02-18T07:36:09.655Z,96445.00
2024-02-18T07:37:08.804Z,96443.00
2024-02-18T07:38:11.645Z,96440.00
2024-02-18T07:39:08.733Z,96437.00
2024-02-18T07:40:08.805Z,96435.00
2024-02-18T07:41:08.715Z,96434.00
2024-02-18T07:42:08.702Z,96432.00
2024-02-18T07:43:08.834Z,96430.00
2024-02-18T07:44:08.764Z,96429.00
2024-02-18T07:45:08.754Z,96429.00
2024-02-18T07:46:08.772Z,96429.00
2024-02-18T07:47:08.825Z,96426.00
2024-02-18T07:48:08.785Z,96425.00
2024-02-18T07:49:08.772Z,96424.00
2024-02-18T07:50:08.893Z,96422.00
2024-02-18T07:51:08.743Z,96421.00
2024-02-18T07:52:09.709Z,96421.00
2024-02-18T07:53:08.760Z,96419.00
2024-02-18T07:54:08.759Z,96419.00
2024-02-18T07:55:08.970Z,96419.00
2024-02-18T07:56:08.767Z,96416.00
2024-02-18T07:57:08.776Z,96417.00
2024-02-18T07:58:08.826Z,96416.00
2024-02-18T07:59:08.731Z,96416.00
2024-02-18T08:00:08.795Z,96416.00
2024-02-18T08:01:08.891Z,96414.00
2024-02-18T08:02:08.817Z,96413.00
2024-02-18T08:03:08.879Z,96416.00
2024-02-18T08:04:08.794Z,96415.00
2024-02-18T08:05:08.850Z,96414.00
2024-02-18T08:06:08.831Z,96412.00
2024-02-18T08:07:08.819Z,96410.00
2024-02-18T08:08:08.767Z,96411.00
2024-02-18T08:09:08.990Z,96411.00
2024-02-18T08:10:09.314Z,96411.00
2024-02-18T08:11:08.781Z,96411.00
2024-02-18T08:12:08.887Z,96409.00
2024-02-18T08:13:08.824Z,96409.00
2024-02-18T08:14:08.779Z,96410.00
2024-02-18T08:15:08.819Z,96407.00
2024-02-18T08:16:09.686Z,96406.00
2024-02-18T08:17:08.762Z,96404.00
2024-02-18T08:18:08.867Z,96402.00
2024-02-18T08:19:09.926Z,96400.00
2024-02-18T08:20:08.889Z,96397.00
2024-02-18T08:21:08.927Z,96400.00
2024-02-18T08:22:09.211Z,96399.00
2024-02-18T08:23:09.153Z,96395.00
2024-02-18T08:24:09.058Z,96395.00
2024-02-18T08:25:09.163Z,96394.00
2024-02-18T08:26:09.705Z,96390.00
2024-02-18T08:27:09.139Z,96387.00
2024-02-18T08:28:09.353Z,96386.00
2024-02-18T08:29:09.236Z,96385.00
2024-02-18T08:30:09.362Z,96386.00
2024-02-18T08:31:09.332Z,96386.00
2024-02-18T08:32:09.329Z,96385.00
2024-02-18T08:33:09.396Z,96382.00
2024-02-18T08:34:09.462Z,96382.00
2024-02-18T08:35:09.670Z,96384.00
2024-02-18T08:36:09.404Z,96384.00
2024-02-18T08:37:09.541Z,96384.00
2024-02-18T08:38:09.558Z,96384.00
2024-02-18T08:39:09.469Z,96380.00
2024-02-18T08:40:09.649Z,96381.00
2024-02-18T08:41:09.606Z,96378.00
2024-02-18T08:42:09.646Z,96380.00
2024-02-18T08:43:09.770Z,96378.00
2024-02-18T08:44:09.690Z,96377.00
2024-02-18T08:45:09.698Z,96376.00
2024-02-18T08:46:09.813Z,96378.00
2024-02-18T08:47:09.677Z,96375.00
2024-02-18T08:48:09.922Z,96375.00
2024-02-18T08:49:09.850Z,96372.00
2024-02-18T08:50:09.855Z,96371.00
2024-02-18T08:51:10.034Z,96368.00
2024-02-18T08:52:10.098Z,96368.00
2024-02-18T08:53:09.787Z,96368.00
2024-02-18T08:54:09.754Z,96365.00
2024-02-18T08:55:10.032Z,96364.00
2024-02-18T08:56:09.758Z,96364.00
2024-02-18T08:57:09.762Z,96364.00
2024-02-18T08:58:09.953Z,96361.00
2024-02-18T08:59:09.862Z,96361.00
2024-02-18T09:00:09.823Z,96360.00
2024-02-18T09:01:09.953Z,96361.00
2024-02-18T09:02:10.024Z,96361.00
2024-02-18T09:03:09.879Z,96360.00
2024-02-18T09:04:10.056Z,96363.00
2024-02-18T09:05:10.494Z,96363.00
2024-02-18T09:06:10.035Z,96362.00
2024-02-18T09:07:10.055Z,96365.00
2024-02-18T09:08:09.912Z,96363.00
2024-02-18T09:09:09.982Z,96365.00
2024-02-18T09:10:10.055Z,96364.00
2024-02-18T09:11:10.017Z,96364.00
2024-02-18T09:12:09.933Z,96362.00
2024-02-18T09:13:10.063Z,96365.00
2024-02-18T09:14:09.952Z,96368.00
2024-02-18T09:15:10.245Z,96368.00
2024-02-18T09:16:10.094Z,96369.00
2024-02-18T09:17:09.933Z,96369.00
2024-02-18T09:18:10.054Z,96368.00
2024-02-18T09:19:10.056Z,96369.00
2024-02-18T09:20:10.078Z,96368.00
2024-02-18T09:21:10.013Z,96370.00
2024-02-18T09:22:10.059Z,96367.00
2024-02-18T09:23:09.995Z,96365.00
2024-02-18T09:24:10.011Z,96365.00
2024-02-18T09:25:09.988Z,96366.00
2024-02-18T09:26:11.697Z,96367.00
2024-02-18T09:27:09.975Z,96365.00
2024-02-18T09:28:10.045Z,96365.00
2024-02-18T09:29:10.052Z,96365.00
2024-02-18T09:30:10.049Z,96364.00
2024-02-18T09:31:10.230Z,96363.00
2024-02-18T09:32:10.201Z,96363.00
2024-02-18T09:33:10.062Z,96360.00
2024-02-18T09:34:10.269Z,96361.00
2024-02-18T09:35:10.129Z,96359.00
2024-02-18T09:36:10.991Z,96359.00
2024-02-18T09:37:10.011Z,96360.00
2024-02-18T09:38:09.960Z,96359.00
2024-02-18T09:39:10.093Z,96358.00
2024-02-18T09:40:10.222Z,96361.00
2024-02-18T09:41:10.213Z,96359.00
2024-02-18T09:42:09.973Z,96361.00
2024-02-18T09:43:09.993Z,96360.00
2024-02-18T09:44:09.959Z,96361.00
2024-02-18T09:45:09.986Z,96360.00
2024-02-18T09:46:10.185Z,96360.00
2024-02-18T09:47:09.973Z,96359.00
2024-02-18T09:48:10.120Z,96356.00
2024-02-18T09:49:10.106Z,96356.00
2024-02-18T09:50:09.994Z,96353.00
2024-02-18T09:51:10.075Z,96353.00
2024-02-18T09:52:10.248Z,96350.00
2024-02-18T09:53:10.169Z,96352.00
2024-02-18T09:54:10.226Z,96351.00
2024-02-18T09:55:10.292Z,96349.00
2024-02-18T09:56:10.282Z,96350.00
2024-02-18T09:57:10.257Z,96347.00
2024-02-18T09:58:10.386Z,96350.00
2024-02-18T09:59:10.261Z,96349.00
2024-02-18T10:00:10.222Z,96349.00
2024-02-18T10:01:10.438Z,96346.00
2024-02-18T10:02:10.276Z,96346.00
2024-02-18T10:03:10.470Z,96345.00
2024-02-18T10:04:10.329Z,96345.00
2024-02-18T10:05:10.926Z,96343.00
2024-02-18T10:06:10.356Z,96342.00
2024-02-18T10:07:10.232Z,96341.00
2024-02-18T10:08:10.345Z,96336.00
2024-02-18T10:09:10.322Z,96337.00
2024-02-18T10:10:10.522Z,96334.00
2024-02-18T10:11:10.540Z,96332.00
2024-02-18T10:12:10.257Z,96326.00
2024-02-18T10:13:10.428Z,96328.00
2024-02-18T10:14:10.448Z,96326.00
2024-02-18T10:15:10.274Z,96326.00
2024-02-18T10:16:10.371Z,96325.00
2024-02-18T10:17:10.455Z,96325.00
2024-02-18T10:18:10.342Z,96321.00
2024-02-18T10:19:10.412Z,96320.00
2024-02-18T10:20:10.420Z,96319.00
2024-02-18T10:21:10.492Z,96316.00
2024-02-18T10:22:10.576Z,96312.00
2024-02-18T10:23:10.468Z,96312.00
2024-02-18T10:24:10.572Z,96312.00
2024-02-18T10:25:10.612Z,96308.00
2024-02-18T10:26:10.440Z,96306.00
2024-02-18T10:27:10.589Z,96304.00
2024-02-18T10:28:10.746Z,96303.00
2024-02-18T10:29:10.541Z,96301.00
2024-02-18T10:30:10.414Z,96297.00
2024-02-18T10:31:10.670Z,96296.00
2024-02-18T10:32:10.467Z,96293.00
2024-02-18T10:33:10.589Z,96291.00
2024-02-18T10:34:10.577Z,96289.00
2024-02-18T10:35:10.702Z,96285.00
2024-02-18T10:36:11.117Z,96284.00
2024-02-18T10:37:10.648Z,96283.00
2024-02-18T10:38:10.608Z,96280.00
2024-02-18T10:39:10.614Z,96276.00
2024-02-18T10:40:10.724Z,96274.00
2024-02-18T10:41:10.678Z,96274.00
2024-02-18T10:42:10.619Z,96270.00
2024-02-18T10:43:11.044Z,96268.00
2024-02-18T10:44:10.668Z,96266.00
2024-02-18T10:45:10.630Z,96265.00
2024-02-18T10:46:11.863Z,96263.00
2024-02-18T10:47:10.618Z,96260.00
2024-02-18T10:48:10.766Z,96259.00
2024-02-18T10:49:10.847Z,96253.00
2024-02-18T10:50:10.639Z,96250.00
2024-02-18T10:51:10.660Z,96248.00
2024-02-18T10:52:11.051Z,96248.00
2024-02-18T10:53:10.709Z,96247.00
2024-02-18T10:54:10.766Z,96242.00
2024-02-18T10:55:10.970Z,96237.00
2024-02-18T10:56:10.759Z,96236.00
2024-02-18T10:57:10.762Z,96234.00
2024-02-18T10:58:10.891Z,96230.00
2024-02-18T10:59:10.878Z,96228.00
2024-02-18T11:00:10.771Z,96226.00
2024-02-18T11:01:10.854Z,96224.00
2024-02-18T11:02:10.875Z,96223.00
2024-02-18T11:03:10.863Z,96218.00
2024-02-18T11:04:10.932Z,96217.00
2024-02-18T11:05:10.859Z,96213.00
2024-02-18T11:06:11.111Z,96209.00
2024-02-18T11:07:11.035Z,96208.00
2024-02-18T11:08:11.175Z,96205.00
2024-02-18T11:09:10.893Z,96203.00
2024-02-18T11:10:11.033Z,96200.00
2024-02-18T11:11:11.384Z,96199.00
2024-02-18T11:12:10.872Z,96197.00
2024-02-18T11:13:11.004Z,96193.00
2024-02-18T11:14:10.931Z,96191.00
2024-02-18T11:15:11.007Z,96189.00
2024-02-18T11:16:11.016Z,96188.00
2024-02-18T11:17:10.956Z,96188.00
2024-02-18T11:18:11.969Z,96186.00
2024-02-18T11:19:11.219Z,96181.00
2024-02-18T11:20:11.101Z,96178.00
2024-02-18T11:21:11.230Z,96173.00
2024-02-18T11:22:11.276Z,96170.00
2024-02-18T11:23:11.085Z,96165.00
2024-02-18T11:24:11.117Z,96162.00
2024-02-18T11:25:11.238Z,96159.00
2024-02-18T11:26:11.223Z,96157.00
2024-02-18T11:27:11.217Z,96153.00
2024-02-18T11:28:11.355Z,96154.00
2024-02-18T11:29:11.303Z,96151.00
2024-02-18T11:30:11.374Z,96147.00
2024-02-18T11:31:11.589Z,96145.00
2024-02-18T11:32:11.441Z,96143.00
2024-02-18T11:33:11.639Z,96138.00
2024-02-18T11:34:11.704Z,96135.00
2024-02-18T11:35:11.614Z,96133.00
2024-02-18T11:36:11.636Z,96131.00
2024-02-18T11:37:11.827Z,96129.00
2024-02-18T11:38:11.678Z,96128.00
2024-02-18T11:39:11.754Z,96125.00
2024-02-18T11:40:13.586Z,96123.00
2024-02-18T11:41:12.022Z,96120.00
2024-02-18T11:42:12.014Z,96123.00
2024-02-18T11:43:12.189Z,96117.00
2024-02-18T11:44:12.224Z,96114.00
2024-02-18T11:45:12.195Z,96111.00